Time,TemperatureF,DewpointF,PressureIn,WindDirection,WindDirectionDegrees,WindSpeedMPH,WindSpeedGustMPH,Humidity,HourlyPrecipIn,Conditions,Clouds,dailyrainin,SoftwareType,DateUTC
2013-04-07 00:00:00,48.8,21.7,30.15,SW,215,5.4,5.9,34,0.00,,CLR,0.00,VWS V14.00,2013-04-07 04:00:00,
2013-04-07 00:01:00,48.8,22.4,30.15,South,186,2.5,4.3,35,0.00,,CLR,0.00,VWS V14.00,2013-04-07 04:01:00,
2013-04-07 00:02:00,48.8,22.4,30.15,South,186,0.0,3.2,35,0.00,,CLR,0.00,VWS V14.00,2013-04-07 04:02:00,
2013-04-07 00:07:00,48.5,22.1,30.15,South,180,0.0,0.0,35,0.00,,CLR,0.00,VWS V14.00,2013-04-07 04:07:00,
2013-04-07 00:12:00,48.3,21.9,30.15,South,173,0.0,0.0,35,0.00,,CLR,0.00,VWS V14.00,2013-04-07 04:12:00,
2013-04-07 00:17:00,48.3,21.9,30.12,SE,141,0.0,3.8,35,0.00,,CLR,0.00,VWS V14.00,2013-04-07 04:17:00,
2013-04-07 00:22:00,48.1,21.8,30.12,SE,141,0.0,0.0,35,0.00,,CLR,0.00,VWS V14.00,2013-04-07 04:22:00,
2013-04-07 00:27:00,48.1,21.8,30.12,WSW,251,3.0,3.2,35,0.00,,CLR,0.00,VWS V14.00,2013-04-07 04:27:00,
2013-04-07 00:32:00,47.3,22.4,30.15,West,261,0.0,0.0,37,0.00,,CLR,0.00,VWS V14.00,2013-04-07 04:32:00,
2013-04-07 00:37:00,47.2,22.2,30.15,West,261,0.0,0.0,37,0.00,,CLR,0.00,VWS V14.00,2013-04-07 04:37:00,
2013-04-07 00:42:00,47.2,22.2,30.15,West,261,0.0,0.0,37,0.00,,CLR,0.00,VWS V14.00,2013-04-07 04:42:00,
2013-04-07 00:47:00,47.2,22.2,30.15,West,261,0.0,0.0,37,0.00,,CLR,0.00,VWS V14.00,2013-04-07 04:47:00,
2013-04-07 00:52:00,47.0,22.7,30.15,West,261,0.0,2.7,38,0.00,,CLR,0.00,VWS V14.00,2013-04-07 04:52:00,
2013-04-07 00:58:00,46.8,22.5,30.15,West,261,0.0,0.0,38,0.00,,CLR,0.00,VWS V14.00,2013-04-07 04:58:00,
2013-04-07 01:03:00,46.8,22.5,30.15,SE,140,3.0,3.2,38,0.00,,CLR,0.00,VWS V14.00,2013-04-07 05:03:00,
2013-04-07 01:08:00,47.0,22.7,30.15,SSE,164,3.0,3.2,38,0.00,,CLR,0.00,VWS V14.00,2013-04-07 05:08:00,
2013-04-07 01:13:00,47.0,22.1,30.15,SSE,163,0.0,0.0,37,0.00,,CLR,0.00,VWS V14.00,2013-04-07 05:13:00,
2013-04-07 01:18:00,47.0,22.1,30.15,West,272,2.5,3.8,37,0.00,,CLR,0.00,VWS V14.00,2013-04-07 05:18:00,
2013-04-07 01:23:00,46.0,21.9,30.15,WNW,299,3.0,3.8,38,0.00,,CLR,0.00,VWS V14.00,2013-04-07 05:23:00,
2013-04-07 01:28:00,45.9,22.3,30.15,WNW,299,0.0,2.7,39,0.00,,CLR,0.00,VWS V14.00,2013-04-07 05:28:00,
2013-04-07 01:33:00,45.9,22.3,30.15,WNW,299,0.0,0.0,39,0.00,,CLR,0.00,VWS V14.00,2013-04-07 05:33:00,
2013-04-07 01:38:00,45.9,22.9,30.15,WNW,297,3.0,3.2,40,0.00,,CLR,0.00,VWS V14.00,2013-04-07 05:38:00,
2013-04-07 01:43:00,45.7,22.8,30.15,NW,312,0.0,0.0,40,0.00,,CLR,0.00,VWS V14.00,2013-04-07 05:43:00,
2013-04-07 01:48:00,45.5,22.6,30.15,WNW,298,0.0,0.0,40,0.00,,CLR,0.00,VWS V14.00,2013-04-07 05:48:00,
2013-04-07 01:54:00,45.7,22.8,30.15,West,270,3.0,3.2,40,0.00,,CLR,0.00,VWS V14.00,2013-04-07 05:54:00,
2013-04-07 01:59:00,45.5,22.6,30.15,WNW,291,2.5,3.8,40,0.00,,CLR,0.00,VWS V14.00,2013-04-07 05:59:00,
2013-04-07 02:04:00,45.1,22.8,30.15,WNW,297,0.0,0.0,41,0.00,,CLR,0.00,VWS V14.00,2013-04-07 06:04:00,
2013-04-07 02:09:00,45.3,22.4,30.15,WNW,297,0.0,0.0,40,0.00,,CLR,0.00,VWS V14.00,2013-04-07 06:09:00,
2013-04-07 02:14:00,45.5,22.0,30.15,WNW,297,0.0,0.0,39,0.00,,CLR,0.00,VWS V14.00,2013-04-07 06:14:00,
2013-04-07 02:19:00,46.2,22.7,30.12,South,184,0.0,4.8,39,0.00,,CLR,0.00,VWS V14.00,2013-04-07 06:19:00,
2013-04-07 02:24:00,46.0,22.5,30.12,South,184,0.0,0.0,39,0.00,,CLR,0.00,VWS V14.00,2013-04-07 06:24:00,
2013-04-07 02:29:00,45.1,21.7,30.12,NW,316,0.0,3.2,39,0.00,,CLR,0.00,VWS V14.00,2013-04-07 06:29:00,
2013-04-07 02:34:00,45.1,21.7,30.12,NW,316,0.0,0.0,39,0.00,,CLR,0.00,VWS V14.00,2013-04-07 06:34:00,
2013-04-07 02:39:00,44.9,21.5,30.12,NW,316,3.0,3.2,39,0.00,,CLR,0.00,VWS V14.00,2013-04-07 06:39:00,
2013-04-07 02:44:00,44.6,21.8,30.12,NNW,327,2.5,3.2,40,0.00,,CLR,0.00,VWS V14.00,2013-04-07 06:44:00,
2013-04-07 02:50:00,44.4,21.6,30.12,NNW,329,0.0,0.0,40,0.00,,CLR,0.00,VWS V14.00,2013-04-07 06:50:00,
2013-04-07 02:55:00,44.6,21.8,30.12,NNW,329,0.0,2.7,40,0.00,,CLR,0.00,VWS V14.00,2013-04-07 06:55:00,
2013-04-07 03:00:00,44.6,21.8,30.12,NNW,329,0.0,0.0,40,0.00,,CLR,0.00,VWS V14.00,2013-04-07 07:00:00,
2013-04-07 03:05:00,44.4,21.6,30.12,NNW,329,0.0,0.0,40,0.00,,CLR,0.00,VWS V14.00,2013-04-07 07:05:00,
2013-04-07 03:10:00,44.4,21.6,30.12,NNW,329,0.0,0.0,40,0.00,,CLR,0.00,VWS V14.00,2013-04-07 07:10:00,
2013-04-07 03:15:00,44.4,21.0,30.12,NNW,329,0.0,0.0,39,0.00,,CLR,0.00,VWS V14.00,2013-04-07 07:15:00,
2013-04-07 03:20:00,44.4,21.0,30.12,NNW,329,0.0,0.0,39,0.00,,CLR,0.00,VWS V14.00,2013-04-07 07:20:00,
2013-04-07 03:25:00,44.4,21.0,30.12,NNW,329,0.0,0.0,39,0.00,,CLR,0.00,VWS V14.00,2013-04-07 07:25:00,
2013-04-07 03:30:00,44.0,20.7,30.12,NNW,329,0.0,0.0,39,0.00,,CLR,0.00,VWS V14.00,2013-04-07 07:30:00,
2013-04-07 03:35:00,43.6,20.9,30.12,NNW,329,2.5,2.7,40,0.00,,CLR,0.00,VWS V14.00,2013-04-07 07:35:00,
2013-04-07 03:41:00,43.3,20.6,30.12,NNW,339,0.0,2.7,40,0.00,,CLR,0.00,VWS V14.00,2013-04-07 07:41:00,
2013-04-07 03:46:00,43.1,20.4,30.12,NNW,339,0.0,0.0,40,0.00,,CLR,0.00,VWS V14.00,2013-04-07 07:46:00,
2013-04-07 03:50:00,43.1,20.4,30.12,North,357,0.0,3.2,40,0.00,,CLR,0.00,VWS V14.00,2013-04-07 07:50:00,
2013-04-07 03:55:00,42.9,20.8,30.12,North,10,0.0,0.0,41,0.00,,CLR,0.00,VWS V14.00,2013-04-07 07:55:00,
2013-04-07 04:01:00,42.5,20.5,30.12,ENE,68,2.5,3.2,41,0.00,,CLR,0.00,VWS V14.00,2013-04-07 08:01:00,
2013-04-07 04:06:00,41.8,19.8,30.12,ENE,68,0.0,2.7,41,0.00,,CLR,0.00,VWS V14.00,2013-04-07 08:06:00,
2013-04-07 04:11:00,41.6,20.2,30.12,ENE,66,3.0,3.8,42,0.00,,CLR,0.00,VWS V14.00,2013-04-07 08:11:00,
2013-04-07 04:16:00,41.6,20.2,30.12,ENE,60,0.0,0.0,42,0.00,,CLR,0.00,VWS V14.00,2013-04-07 08:16:00,
2013-04-07 04:21:00,41.2,20.4,30.12,NE,53,0.0,0.0,43,0.00,,CLR,0.00,VWS V14.00,2013-04-07 08:21:00,
2013-04-07 04:26:00,40.9,20.6,30.12,NNE,16,2.5,3.2,44,0.00,,CLR,0.00,VWS V14.00,2013-04-07 08:26:00,
2013-04-07 04:31:00,40.9,20.6,30.12,NE,48,0.0,0.0,44,0.00,,CLR,0.00,VWS V14.00,2013-04-07 08:31:00,
2013-04-07 04:36:00,41.0,20.8,30.12,NE,48,3.0,3.2,44,0.00,,CLR,0.00,VWS V14.00,2013-04-07 08:36:00,
2013-04-07 04:41:00,40.9,20.6,30.12,NE,48,0.0,0.0,44,0.00,,CLR,0.00,VWS V14.00,2013-04-07 08:41:00,
2013-04-07 04:46:00,40.7,20.5,30.12,NE,48,0.0,0.0,44,0.00,,CLR,0.00,VWS V14.00,2013-04-07 08:46:00,
2013-04-07 04:51:00,40.7,20.5,30.12,NE,48,0.0,0.0,44,0.00,,CLR,0.00,VWS V14.00,2013-04-07 08:51:00,
2013-04-07 04:57:00,40.5,20.8,30.12,NE,48,0.0,0.0,45,0.00,,CLR,0.00,VWS V14.00,2013-04-07 08:57:00,
2013-04-07 05:02:00,40.5,20.8,30.12,NE,48,2.5,2.7,45,0.00,,CLR,0.00,VWS V14.00,2013-04-07 09:02:00,
2013-04-07 05:07:00,40.3,20.7,30.12,NE,48,0.0,0.0,45,0.00,,CLR,0.00,VWS V14.00,2013-04-07 09:07:00,
2013-04-07 05:12:00,40.1,20.5,30.12,NE,48,2.5,3.2,45,0.00,,CLR,0.00,VWS V14.00,2013-04-07 09:12:00,
2013-04-07 05:17:00,40.1,20.5,30.12,ENE,61,0.0,2.7,45,0.00,,CLR,0.00,VWS V14.00,2013-04-07 09:17:00,
2013-04-07 05:22:00,40.1,20.5,30.12,ENE,70,0.0,0.0,45,0.00,,CLR,0.00,VWS V14.00,2013-04-07 09:22:00,
2013-04-07 05:27:00,39.9,20.3,30.12,ENE,70,0.0,0.0,45,0.00,,CLR,0.00,VWS V14.00,2013-04-07 09:27:00,
2013-04-07 05:32:00,39.9,20.8,30.09,NNE,24,0.0,0.0,46,0.00,,CLR,0.00,VWS V14.00,2013-04-07 09:32:00,
2013-04-07 05:37:00,39.6,20.5,30.09,NNE,24,0.0,0.0,46,0.00,,CLR,0.00,VWS V14.00,2013-04-07 09:37:00,
2013-04-07 05:42:00,39.4,20.3,30.09,NNE,24,0.0,0.0,46,0.00,,CLR,0.00,VWS V14.00,2013-04-07 09:42:00,
2013-04-07 05:47:00,39.4,20.3,30.09,NNE,24,0.0,0.0,46,0.00,,CLR,0.00,VWS V14.00,2013-04-07 09:47:00,
2013-04-07 05:53:00,39.2,20.7,30.09,NNE,24,0.0,0.0,47,0.00,,CLR,0.00,VWS V14.00,2013-04-07 09:53:00,
2013-04-07 05:58:00,39.0,20.5,30.09,NNE,24,0.0,0.0,47,0.00,,CLR,0.00,VWS V14.00,2013-04-07 09:58:00,
2013-04-07 06:03:00,38.6,20.2,30.09,NNE,24,0.0,2.7,47,0.00,,CLR,0.00,VWS V14.00,2013-04-07 10:03:00,
2013-04-07 06:08:00,38.6,20.6,30.09,NNE,24,0.0,0.0,48,0.00,,CLR,0.00,VWS V14.00,2013-04-07 10:08:00,
2013-04-07 06:13:00,38.6,20.6,30.09,NNE,24,0.0,0.0,48,0.00,,CLR,0.00,VWS V14.00,2013-04-07 10:13:00,
2013-04-07 06:18:00,38.5,21.0,30.09,NNE,24,0.0,0.0,49,0.00,,CLR,0.00,VWS V14.00,2013-04-07 10:18:00,
2013-04-07 06:23:00,38.1,20.6,30.09,NNE,24,0.0,0.0,49,0.00,,CLR,0.00,VWS V14.00,2013-04-07 10:23:00,
2013-04-07 06:28:00,37.9,20.5,30.09,NNE,24,0.0,0.0,49,0.00,,CLR,0.00,VWS V14.00,2013-04-07 10:28:00,
2013-04-07 06:33:00,37.7,20.3,30.12,NNE,24,0.0,0.0,49,0.00,,CLR,0.00,VWS V14.00,2013-04-07 10:33:00,
2013-04-07 06:38:00,37.5,20.1,30.12,NNE,24,2.5,3.2,49,0.00,,CLR,0.00,VWS V14.00,2013-04-07 10:38:00,
2013-04-07 06:43:00,37.3,20.4,30.12,NNE,24,2.5,2.7,50,0.00,,CLR,0.00,VWS V14.00,2013-04-07 10:43:00,
2013-04-07 06:48:00,37.2,20.2,30.12,NNE,24,0.0,0.0,50,0.00,,CLR,0.00,VWS V14.00,2013-04-07 10:48:00,
2013-04-07 06:53:00,37.0,20.1,30.12,NNE,24,2.5,2.7,50,0.00,,CLR,0.00,VWS V14.00,2013-04-07 10:53:00,
2013-04-07 06:58:00,37.2,20.7,30.12,NNE,24,0.0,0.0,51,0.00,,CLR,0.00,VWS V14.00,2013-04-07 10:58:00,
2013-04-07 07:03:00,37.3,20.9,30.12,NNE,24,0.0,0.0,51,0.00,,CLR,0.00,VWS V14.00,2013-04-07 11:03:00,
2013-04-07 07:09:00,37.2,20.7,30.12,NNE,24,0.0,0.0,51,0.00,,CLR,0.00,VWS V14.00,2013-04-07 11:09:00,
2013-04-07 07:14:00,37.2,21.2,30.12,NNE,24,0.0,0.0,52,0.00,,CLR,0.00,VWS V14.00,2013-04-07 11:14:00,
2013-04-07 07:19:00,37.2,21.2,30.12,NNE,24,0.0,0.0,52,0.00,,CLR,0.00,VWS V14.00,2013-04-07 11:19:00,
2013-04-07 07:24:00,37.2,21.2,30.12,NNE,24,0.0,0.0,52,0.00,,CLR,0.00,VWS V14.00,2013-04-07 11:24:00,
2013-04-07 07:29:00,36.8,21.3,30.12,NNE,24,0.0,0.0,53,0.00,,CLR,0.00,VWS V14.00,2013-04-07 11:29:00,
2013-04-07 07:34:00,37.0,21.9,30.12,NNE,24,0.0,0.0,54,0.00,,CLR,0.00,VWS V14.00,2013-04-07 11:34:00,
2013-04-07 07:39:00,37.2,22.1,30.12,NNE,24,0.0,0.0,54,0.00,,CLR,0.00,VWS V14.00,2013-04-07 11:39:00,
2013-04-07 07:44:00,36.8,22.1,30.12,NNE,24,0.0,0.0,55,0.00,,CLR,0.00,VWS V14.00,2013-04-07 11:44:00,
2013-04-07 07:49:00,37.0,22.8,30.12,NNE,24,0.0,0.0,56,0.00,,CLR,0.00,VWS V14.00,2013-04-07 11:49:00,
2013-04-07 07:55:00,37.0,23.2,30.12,NNE,24,0.0,0.0,57,0.00,,CLR,0.00,VWS V14.00,2013-04-07 11:55:00,
2013-04-07 08:00:00,37.3,23.9,30.12,NNE,24,0.0,0.0,58,0.00,,CLR,0.00,VWS V14.00,2013-04-07 12:00:00,
2013-04-07 08:05:00,37.5,24.1,30.12,NNE,24,0.0,0.0,58,0.00,,CLR,0.00,VWS V14.00,2013-04-07 12:05:00,
2013-04-07 08:10:00,37.3,24.3,30.12,NNE,24,0.0,0.0,59,0.00,,CLR,0.00,VWS V14.00,2013-04-07 12:10:00,
2013-04-07 08:15:00,37.7,24.3,30.12,NNE,24,0.0,0.0,58,0.00,,CLR,0.00,VWS V14.00,2013-04-07 12:15:00,
2013-04-07 08:20:00,37.7,24.7,30.12,NNE,24,0.0,0.0,59,0.00,,CLR,0.00,VWS V14.00,2013-04-07 12:20:00,
2013-04-07 08:25:00,38.3,24.8,30.12,NNE,24,0.0,0.0,58,0.00,,CLR,0.00,VWS V14.00,2013-04-07 12:25:00,
2013-04-07 08:30:00,38.6,25.1,30.12,NNE,24,0.0,0.0,58,0.00,,CLR,0.00,VWS V14.00,2013-04-07 12:30:00,
2013-04-07 08:35:00,39.2,25.7,30.12,North,0,2.5,3.2,58,0.00,,CLR,0.00,VWS V14.00,2013-04-07 12:35:00,
2013-04-07 08:41:00,39.6,25.6,30.12,NNW,344,2.5,2.7,57,0.00,,CLR,0.00,VWS V14.00,2013-04-07 12:41:00,
2013-04-07 08:46:00,39.9,26.4,30.12,NNW,343,2.5,3.2,58,0.00,,CLR,0.00,VWS V14.00,2013-04-07 12:46:00,
2013-04-07 08:51:00,40.7,27.1,30.12,NNW,337,3.0,3.8,58,0.00,,CLR,0.00,VWS V14.00,2013-04-07 12:51:00,
2013-04-07 08:56:00,41.2,28.0,30.12,NW,319,3.0,3.8,59,0.00,,CLR,0.00,VWS V14.00,2013-04-07 12:56:00,
2013-04-07 09:01:00,41.8,27.7,30.12,NW,319,3.0,3.2,57,0.00,,CLR,0.00,VWS V14.00,2013-04-07 13:01:00,
2013-04-07 09:06:00,42.0,27.9,30.12,NW,315,2.5,3.2,57,0.00,,CLR,0.00,VWS V14.00,2013-04-07 13:06:00,
2013-04-07 09:11:00,42.5,28.4,30.12,NW,313,3.0,3.8,57,0.00,,CLR,0.00,VWS V14.00,2013-04-07 13:11:00,
2013-04-07 09:16:00,42.9,28.3,30.12,NW,308,3.4,3.8,56,0.00,,CLR,0.00,VWS V14.00,2013-04-07 13:16:00,
2013-04-07 09:22:00,43.5,27.9,30.12,NW,314,3.0,3.2,54,0.00,,CLR,0.00,VWS V14.00,2013-04-07 13:22:00,
2013-04-07 09:27:00,43.8,27.8,30.12,WNW,282,3.0,3.2,53,0.00,,CLR,0.00,VWS V14.00,2013-04-07 13:27:00,
2013-04-07 09:32:00,44.2,27.7,30.12,West,279,0.0,3.2,52,0.00,,CLR,0.00,VWS V14.00,2013-04-07 13:32:00,
2013-04-07 09:37:00,44.4,27.9,30.12,WNW,289,2.5,2.7,52,0.00,,CLR,0.00,VWS V14.00,2013-04-07 13:37:00,
2013-04-07 09:42:00,44.8,28.2,30.12,WNW,289,0.0,0.0,52,0.00,,CLR,0.00,VWS V14.00,2013-04-07 13:42:00,
2013-04-07 09:47:00,45.7,28.6,30.12,WNW,289,0.0,0.0,51,0.00,,CLR,0.00,VWS V14.00,2013-04-07 13:47:00,
2013-04-07 09:52:00,46.4,28.8,30.12,WSW,244,0.0,0.0,50,0.00,,CLR,0.00,VWS V14.00,2013-04-07 13:52:00,
2013-04-07 09:57:00,47.0,27.8,30.12,NW,319,3.0,3.2,47,0.00,,CLR,0.00,VWS V14.00,2013-04-07 13:57:00,
2013-04-07 10:02:00,48.1,29.4,30.12,SW,217,3.0,3.8,48,0.00,,CLR,0.00,VWS V14.00,2013-04-07 14:02:00,
2013-04-07 10:07:00,49.0,30.2,30.12,West,280,3.4,3.8,48,0.00,,CLR,0.00,VWS V14.00,2013-04-07 14:07:00,
2013-04-07 10:12:00,49.9,31.0,30.12,WSW,242,3.4,7.5,48,0.00,,CLR,0.00,VWS V14.00,2013-04-07 14:12:00,
2013-04-07 10:17:00,49.9,30.5,30.12,South,190,3.4,4.8,47,0.00,,CLR,0.00,VWS V14.00,2013-04-07 14:17:00,
2013-04-07 10:22:00,49.8,30.4,30.12,SW,218,6.4,7.5,47,0.00,,CLR,0.00,VWS V14.00,2013-04-07 14:22:00,
2013-04-07 10:27:00,50.3,30.9,30.12,South,183,3.9,4.3,47,0.00,,CLR,0.00,VWS V14.00,2013-04-07 14:27:00,
2013-04-07 10:32:00,50.7,30.7,30.12,SSW,203,4.4,4.8,46,0.00,,CLR,0.00,VWS V14.00,2013-04-07 14:32:00,
2013-04-07 10:38:00,50.9,30.9,30.12,SW,224,5.4,5.9,46,0.00,,CLR,0.00,VWS V14.00,2013-04-07 14:38:00,
2013-04-07 10:43:00,51.4,30.8,30.12,SW,214,3.4,7.5,45,0.00,,CLR,0.00,VWS V14.00,2013-04-07 14:43:00,
2013-04-07 10:48:00,52.3,31.1,30.12,SW,228,3.4,6.4,44,0.00,,CLR,0.00,VWS V14.00,2013-04-07 14:48:00,
2013-04-07 10:53:00,52.9,31.0,30.12,SW,215,3.4,7.0,43,0.00,,CLR,0.00,VWS V14.00,2013-04-07 14:53:00,
2013-04-07 10:58:00,53.1,31.8,30.12,WSW,238,8.4,9.1,44,0.00,,CLR,0.00,VWS V14.00,2013-04-07 14:58:00,
2013-04-07 11:03:00,54.0,32.0,30.12,SSW,201,3.0,5.9,43,0.00,,CLR,0.00,VWS V14.00,2013-04-07 15:03:00,
2013-04-07 11:08:00,53.7,31.7,30.12,SW,214,6.4,7.5,43,0.00,,CLR,0.00,VWS V14.00,2013-04-07 15:08:00,
2013-04-07 11:14:00,53.7,31.1,30.12,South,176,9.1,9.9,42,0.00,,CLR,0.00,VWS V14.00,2013-04-07 15:14:00,
2013-04-07 11:19:00,53.8,31.3,30.12,SW,216,6.4,9.7,42,0.00,,CLR,0.00,VWS V14.00,2013-04-07 15:19:00,
2013-04-07 11:24:00,54.2,31.6,30.12,SW,215,6.9,9.7,42,0.00,,CLR,0.00,VWS V14.00,2013-04-07 15:24:00,
2013-04-07 11:29:00,54.4,31.8,30.12,SW,217,6.9,12.1,42,0.00,,CLR,0.00,VWS V14.00,2013-04-07 15:29:00,
2013-04-07 11:35:00,55.0,32.3,30.12,South,183,3.9,7.0,42,0.00,,CLR,0.00,VWS V14.00,2013-04-07 15:35:00,
2013-04-07 11:40:00,55.1,31.9,30.12,SSW,193,5.4,7.5,41,0.00,,CLR,0.00,VWS V14.00,2013-04-07 15:40:00,
2013-04-07 11:45:00,55.7,32.4,30.12,SSW,211,9.6,10.5,41,0.00,,CLR,0.00,VWS V14.00,2013-04-07 15:45:00,
2013-04-07 11:50:00,56.1,32.1,30.09,SSW,196,5.9,12.1,40,0.00,,CLR,0.00,VWS V14.00,2013-04-07 15:50:00,
2013-04-07 11:55:00,57.2,33.1,30.09,SSE,168,9.1,9.9,40,0.00,,CLR,0.00,VWS V14.00,2013-04-07 15:55:00,
2013-04-07 12:01:00,57.4,33.3,30.09,South,174,9.6,12.6,40,0.00,,CLR,0.00,VWS V14.00,2013-04-07 16:01:00,
2013-04-07 12:06:00,57.9,33.1,30.09,WSW,240,8.4,9.7,39,0.00,,CLR,0.00,VWS V14.00,2013-04-07 16:06:00,
2013-04-07 12:11:00,58.7,33.8,30.09,SSE,168,11.1,12.1,39,0.00,,CLR,0.00,VWS V14.00,2013-04-07 16:11:00,
2013-04-07 12:16:00,58.8,33.3,30.09,South,174,9.1,12.1,38,0.00,,CLR,0.00,VWS V14.00,2013-04-07 16:16:00,
2013-04-07 12:21:00,59.6,34.0,30.09,South,176,5.9,9.7,38,0.00,,CLR,0.00,VWS V14.00,2013-04-07 16:21:00,
2013-04-07 12:26:00,60.0,34.3,30.09,SW,224,6.9,13.2,38,0.00,,CLR,0.00,VWS V14.00,2013-04-07 16:26:00,
2013-04-07 12:31:00,60.7,34.3,30.09,SSW,198,5.9,9.7,37,0.00,,CLR,0.00,VWS V14.00,2013-04-07 16:31:00,
2013-04-07 12:36:00,61.1,34.6,30.09,SSW,213,10.1,11.0,37,0.00,,CLR,0.00,VWS V14.00,2013-04-07 16:36:00,
2013-04-07 12:42:00,61.4,35.0,30.09,South,187,12.1,14.8,37,0.00,,CLR,0.00,VWS V14.00,2013-04-07 16:42:00,
2013-04-07 12:47:00,61.1,34.6,30.06,SSE,150,8.9,11.0,37,0.00,,CLR,0.00,VWS V14.00,2013-04-07 16:47:00,
2013-04-07 12:52:00,61.4,35.0,30.06,SSW,207,11.1,13.7,37,0.00,,CLR,0.00,VWS V14.00,2013-04-07 16:52:00,
2013-04-07 12:57:00,61.2,34.8,30.06,South,183,8.9,12.1,37,0.00,,CLR,0.00,VWS V14.00,2013-04-07 16:57:00,
2013-04-07 13:02:00,62.2,34.9,30.06,SSW,194,9.1,10.5,36,0.00,,CLR,0.00,VWS V14.00,2013-04-07 17:02:00,
2013-04-07 13:07:00,62.2,34.9,30.06,South,183,8.9,9.7,36,0.00,,CLR,0.00,VWS V14.00,2013-04-07 17:07:00,
2013-04-07 13:12:00,62.5,35.2,30.06,South,174,9.1,15.8,36,0.00,,CLR,0.00,VWS V14.00,2013-04-07 17:12:00,
2013-04-07 13:17:00,63.3,36.6,30.06,SE,145,8.9,13.2,37,0.00,,CLR,0.00,VWS V14.00,2013-04-07 17:17:00,
2013-04-07 13:23:00,63.5,36.1,30.06,SW,221,14.0,15.3,36,0.00,,CLR,0.00,VWS V14.00,2013-04-07 17:23:00,
2013-04-07 13:28:00,63.3,35.9,30.06,South,188,11.1,12.1,36,0.00,,CLR,0.00,VWS V14.00,2013-04-07 17:28:00,
2013-04-07 13:33:00,63.8,36.4,30.06,SSW,203,8.4,20.4,36,0.00,,CLR,0.00,VWS V14.00,2013-04-07 17:33:00,
2013-04-07 13:38:00,64.0,35.9,30.06,South,191,12.1,13.2,35,0.00,,CLR,0.00,VWS V14.00,2013-04-07 17:38:00,
2013-04-07 13:43:00,64.4,36.2,30.06,South,174,6.4,12.1,35,0.00,,CLR,0.00,VWS V14.00,2013-04-07 17:43:00,
2013-04-07 13:48:00,64.2,36.0,30.06,South,181,9.1,12.1,35,0.00,,CLR,0.00,VWS V14.00,2013-04-07 17:48:00,
2013-04-07 13:53:00,64.8,36.5,30.06,ESE,113,9.6,12.1,35,0.00,,CLR,0.00,VWS V14.00,2013-04-07 17:53:00,
2013-04-07 13:58:00,65.0,36.7,30.06,SSW,193,8.9,11.5,35,0.00,,CLR,0.00,VWS V14.00,2013-04-07 17:58:00,
2013-04-07 14:03:00,64.8,36.5,30.03,SSW,202,8.9,9.7,35,0.00,,CLR,0.00,VWS V14.00,2013-04-07 18:03:00,
2013-04-07 14:08:00,64.8,36.5,30.03,WSW,240,5.9,9.9,35,0.00,,CLR,0.00,VWS V14.00,2013-04-07 18:08:00,
2013-04-07 14:13:00,65.5,37.2,30.03,SSW,209,6.9,9.7,35,0.00,,CLR,0.00,VWS V14.00,2013-04-07 18:13:00,
2013-04-07 14:19:00,65.5,36.4,30.03,South,188,11.6,12.6,34,0.00,,CLR,0.00,VWS V14.00,2013-04-07 18:19:00,
2013-04-07 14:24:00,66.1,37.7,30.03,SE,133,8.9,10.5,35,0.00,,CLR,0.00,VWS V14.00,2013-04-07 18:24:00,
2013-04-07 14:29:00,66.6,37.4,30.03,SSW,196,5.9,10.5,34,0.00,,CLR,0.00,VWS V14.00,2013-04-07 18:29:00,
2013-04-07 14:34:00,67.7,38.4,30.03,SSE,162,11.1,12.1,34,0.00,,CLR,0.00,VWS V14.00,2013-04-07 18:34:00,
2013-04-07 14:39:00,67.7,37.6,30.03,WSW,239,8.9,20.9,33,0.00,,CLR,0.00,VWS V14.00,2013-04-07 18:39:00,
2013-04-07 14:44:00,68.8,39.4,30.03,South,176,8.4,14.2,34,0.00,,CLR,0.00,VWS V14.00,2013-04-07 18:44:00,
2013-04-07 14:49:00,69.0,38.8,30.03,South,185,11.1,12.1,33,0.00,,CLR,0.00,VWS V14.00,2013-04-07 18:49:00,
2013-04-07 14:55:00,69.4,39.1,30.03,South,171,6.9,10.5,33,0.00,,CLR,0.00,VWS V14.00,2013-04-07 18:55:00,
2013-04-07 15:00:00,69.4,38.3,30.03,South,184,9.6,18.0,32,0.00,,CLR,0.00,VWS V14.00,2013-04-07 19:00:00,
2013-04-07 15:05:00,69.4,39.1,30.00,SSW,211,14.0,15.3,33,0.00,,FEW065,0.00,VWS V14.00,2013-04-07 19:05:00,
2013-04-07 15:10:00,70.2,39.7,30.00,SW,224,6.4,12.6,33,0.00,,FEW065,0.00,VWS V14.00,2013-04-07 19:10:00,
2013-04-07 15:15:00,69.8,38.6,30.00,SW,216,5.9,15.8,32,0.00,,FEW065,0.00,VWS V14.00,2013-04-07 19:15:00,
2013-04-07 15:20:00,70.5,39.3,30.00,SSW,213,13.5,18.0,32,0.00,,FEW065,0.00,VWS V14.00,2013-04-07 19:20:00,
2013-04-07 15:25:00,71.4,40.1,30.00,SE,127,5.9,9.7,32,0.00,,FEW065,0.00,VWS V14.00,2013-04-07 19:25:00,
2013-04-07 15:30:00,71.6,40.2,30.00,South,185,9.1,9.9,32,0.00,,FEW065,0.00,VWS V14.00,2013-04-07 19:30:00,
2013-04-07 15:35:00,71.6,40.2,30.00,SW,223,9.1,13.2,32,0.00,,FEW065,0.00,VWS V14.00,2013-04-07 19:35:00,
2013-04-07 15:40:00,71.1,38.9,30.00,South,188,9.1,9.9,31,0.00,,FEW065,0.00,VWS V14.00,2013-04-07 19:40:00,
2013-04-07 15:45:00,70.2,38.1,30.00,SSW,202,15.0,16.4,31,0.00,,FEW065,0.00,VWS V14.00,2013-04-07 19:45:00,
2013-04-07 15:51:00,71.1,39.8,30.00,SSW,192,9.6,10.5,32,0.00,,FEW065,0.00,VWS V14.00,2013-04-07 19:51:00,
2013-04-07 15:56:00,70.9,38.8,30.00,SSW,211,11.6,15.3,31,0.00,,FEW065,0.00,VWS V14.00,2013-04-07 19:56:00,
2013-04-07 16:01:00,70.7,39.4,30.00,SSW,197,11.1,12.1,32,0.00,,FEW065,0.00,VWS V14.00,2013-04-07 20:01:00,
2013-04-07 16:06:00,71.4,39.3,30.00,SSW,211,9.1,12.1,31,0.00,,FEW065,0.00,VWS V14.00,2013-04-07 20:06:00,
2013-04-07 16:11:00,71.3,39.1,30.00,South,180,9.1,12.1,31,0.00,,FEW065,0.00,VWS V14.00,2013-04-07 20:11:00,
2013-04-07 16:16:00,70.0,37.1,30.00,SE,138,6.4,12.1,30,0.00,,FEW065,0.00,VWS V14.00,2013-04-07 20:16:00,
2013-04-07 16:21:00,69.6,36.8,30.00,South,173,9.1,12.6,30,0.00,,FEW065,0.00,VWS V14.00,2013-04-07 20:21:00,
2013-04-07 16:26:00,69.8,37.0,30.00,South,185,8.4,15.8,30,0.00,,FEW065,0.00,VWS V14.00,2013-04-07 20:26:00,
2013-04-07 16:31:00,71.1,37.2,30.00,SSW,209,14.5,18.0,29,0.00,,FEW065,0.00,VWS V14.00,2013-04-07 20:31:00,
2013-04-07 16:36:00,70.5,36.8,30.00,SW,214,6.4,14.2,29,0.00,,FEW065,0.00,VWS V14.00,2013-04-07 20:36:00,
2013-04-07 16:41:00,70.0,35.4,30.00,SSW,204,6.4,9.7,28,0.00,,FEW065,0.00,VWS V14.00,2013-04-07 20:41:00,
2013-04-07 16:47:00,69.8,35.2,30.00,SW,228,11.6,15.8,28,0.00,,FEW065,0.00,VWS V14.00,2013-04-07 20:47:00,
2013-04-07 16:52:00,69.6,36.0,30.00,SSE,152,14.0,15.8,29,0.00,,FEW065,0.00,VWS V14.00,2013-04-07 20:52:00,
2013-04-07 16:57:00,69.2,35.6,30.00,SW,235,6.9,10.5,29,0.00,,FEW065,0.00,VWS V14.00,2013-04-07 20:57:00,
2013-04-07 17:02:00,69.2,36.5,30.00,SW,214,4.4,9.9,30,0.00,,BKN100,0.00,VWS V14.00,2013-04-07 21:02:00,
2013-04-07 17:07:00,69.0,35.5,30.00,SSW,202,8.4,10.5,29,0.00,,BKN100,0.00,VWS V14.00,2013-04-07 21:07:00,
2013-04-07 17:12:00,69.0,36.3,30.00,South,174,13.0,14.2,30,0.00,,BKN100,0.00,VWS V14.00,2013-04-07 21:12:00,
2013-04-07 17:17:00,68.5,35.9,30.00,SSE,164,6.9,14.2,30,0.00,,BKN100,0.00,VWS V14.00,2013-04-07 21:17:00,
2013-04-07 17:22:00,68.5,35.9,30.00,SW,218,13.5,14.8,30,0.00,,BKN100,0.00,VWS V14.00,2013-04-07 21:22:00,
2013-04-07 17:28:00,68.5,36.7,30.00,South,190,6.9,11.5,31,0.00,,BKN100,0.00,VWS V14.00,2013-04-07 21:28:00,
2013-04-07 17:33:00,68.5,36.7,30.00,SSW,196,4.4,6.4,31,0.00,,BKN100,0.00,VWS V14.00,2013-04-07 21:33:00,
2013-04-07 17:38:00,68.3,36.5,30.00,South,181,8.9,12.6,31,0.00,,BKN100,0.00,VWS V14.00,2013-04-07 21:38:00,
2013-04-07 17:43:00,68.3,36.5,30.00,SSW,213,8.9,15.8,31,0.00,,BKN100,0.00,VWS V14.00,2013-04-07 21:43:00,
2013-04-07 17:48:00,68.1,36.4,30.00,SSW,192,8.9,9.7,31,0.00,,BKN100,0.00,VWS V14.00,2013-04-07 21:48:00,
2013-04-07 17:53:00,68.1,36.4,30.00,South,182,5.4,7.5,31,0.00,,BKN100,0.00,VWS V14.00,2013-04-07 21:53:00,
2013-04-07 17:58:00,68.1,36.4,30.00,South,183,5.4,7.0,31,0.00,,BKN100,0.00,VWS V14.00,2013-04-07 21:58:00,
2013-04-07 18:03:00,67.9,37.0,30.00,SW,217,6.4,7.0,32,0.00,,OVC100,0.00,VWS V14.00,2013-04-07 22:03:00,
2013-04-07 18:08:00,67.7,36.8,30.00,South,183,5.9,9.7,32,0.00,,OVC100,0.00,VWS V14.00,2013-04-07 22:08:00,
2013-04-07 18:13:00,67.6,35.9,30.00,SW,227,5.9,7.5,31,0.00,,OVC100,0.00,VWS V14.00,2013-04-07 22:13:00,
2013-04-07 18:18:00,67.4,36.5,30.00,SSW,212,5.9,7.5,32,0.00,,OVC100,0.00,VWS V14.00,2013-04-07 22:18:00,
2013-04-07 18:23:00,67.4,36.5,30.00,SW,220,4.4,8.6,32,0.00,,OVC100,0.00,VWS V14.00,2013-04-07 22:23:00,
2013-04-07 18:28:00,67.2,36.4,30.00,SSE,157,6.4,7.5,32,0.00,,OVC100,0.00,VWS V14.00,2013-04-07 22:28:00,
2013-04-07 18:33:00,67.0,37.0,30.00,South,190,8.9,12.1,33,0.00,,OVC100,0.00,VWS V14.00,2013-04-07 22:33:00,
2013-04-07 18:38:00,67.0,37.0,30.00,South,187,9.6,10.5,33,0.00,,OVC100,0.00,VWS V14.00,2013-04-07 22:38:00,
2013-04-07 18:44:00,67.0,36.2,30.00,SW,224,6.4,10.5,32,0.00,,OVC100,0.00,VWS V14.00,2013-04-07 22:44:00,
2013-04-07 18:49:00,67.0,36.2,30.00,SSW,201,9.6,10.5,32,0.00,,OVC100,0.00,VWS V14.00,2013-04-07 22:49:00,
2013-04-07 18:54:00,67.0,36.2,30.00,SSW,204,5.9,6.4,32,0.00,,OVC100,0.00,VWS V14.00,2013-04-07 22:54:00,
2013-04-07 18:59:00,66.8,36.0,30.00,SSW,203,6.4,7.0,32,0.00,,OVC100,0.00,VWS V14.00,2013-04-07 22:59:00,
2013-04-07 19:05:00,66.6,36.7,30.00,South,188,6.4,9.7,33,0.00,,SCT100,0.00,VWS V14.00,2013-04-07 23:05:00,
2013-04-07 19:10:00,66.4,36.5,30.00,SSW,197,4.4,5.9,33,0.00,,SCT100,0.00,VWS V14.00,2013-04-07 23:10:00,
2013-04-07 19:15:00,66.4,36.5,30.00,SSW,211,5.4,5.9,33,0.00,,SCT100,0.00,VWS V14.00,2013-04-07 23:15:00,
2013-04-07 19:20:00,66.3,36.3,30.03,South,174,7.4,9.9,33,0.00,,SCT100,0.00,VWS V14.00,2013-04-07 23:20:00,
2013-04-07 19:25:00,66.1,36.2,30.03,South,173,5.9,12.1,33,0.00,,SCT100,0.00,VWS V14.00,2013-04-07 23:25:00,
2013-04-07 19:30:00,65.7,35.8,30.03,SSW,212,7.4,9.1,33,0.00,,SCT100,0.00,VWS V14.00,2013-04-07 23:30:00,
2013-04-07 19:35:00,65.7,35.8,30.03,SSW,199,8.4,9.7,33,0.00,,SCT100,0.00,VWS V14.00,2013-04-07 23:35:00,
2013-04-07 19:40:00,65.5,35.7,30.03,SSW,192,6.4,10.5,33,0.00,,SCT100,0.00,VWS V14.00,2013-04-07 23:40:00,
2013-04-07 19:45:00,65.3,35.5,30.03,South,187,5.9,9.1,33,0.00,,SCT100,0.00,VWS V14.00,2013-04-07 23:45:00,
2013-04-07 19:50:00,65.2,35.3,30.00,SSW,207,6.9,9.1,33,0.00,,SCT100,0.00,VWS V14.00,2013-04-07 23:50:00,
2013-04-07 19:55:00,65.0,35.2,30.00,South,170,5.9,9.1,33,0.00,,SCT100,0.00,VWS V14.00,2013-04-07 23:55:00,
2013-04-07 20:00:00,65.0,35.9,30.00,SSW,196,7.4,9.1,34,0.00,,SCT100,0.00,VWS V14.00,2013-04-08 00:00:00,
2013-04-07 20:05:00,64.6,35.6,30.03,South,177,4.4,8.6,34,0.00,,CLR,0.00,VWS V14.00,2013-04-08 00:05:00,
2013-04-07 20:10:00,64.4,35.5,30.03,South,179,3.9,7.5,34,0.00,,CLR,0.00,VWS V14.00,2013-04-08 00:10:00,
2013-04-07 20:15:00,64.2,35.3,30.03,SSW,202,3.9,7.0,34,0.00,,CLR,0.00,VWS V14.00,2013-04-08 00:15:00,
2013-04-07 20:21:00,64.0,35.1,30.03,South,174,6.4,7.5,34,0.00,,CLR,0.00,VWS V14.00,2013-04-08 00:21:00,
2013-04-07 20:26:00,63.8,35.0,30.03,SSW,208,7.9,8.6,34,0.00,,CLR,0.00,VWS V14.00,2013-04-08 00:26:00,
2013-04-07 20:31:00,63.8,35.0,30.03,SSW,193,5.9,7.5,34,0.00,,CLR,0.00,VWS V14.00,2013-04-08 00:31:00,
2013-04-07 20:36:00,63.8,35.0,30.03,SSW,206,3.4,9.9,34,0.00,,CLR,0.00,VWS V14.00,2013-04-08 00:36:00,
2013-04-07 20:41:00,63.8,35.0,30.03,SSW,196,5.9,7.0,34,0.00,,CLR,0.00,VWS V14.00,2013-04-08 00:41:00,
2013-04-07 20:47:00,63.5,34.6,30.03,South,188,6.4,7.0,34,0.00,,CLR,0.00,VWS V14.00,2013-04-08 00:47:00,
2013-04-07 20:52:00,63.5,34.6,30.03,South,191,5.9,10.5,34,0.00,,CLR,0.00,VWS V14.00,2013-04-08 00:52:00,
2013-04-07 20:57:00,63.1,35.0,30.03,SSW,197,5.9,9.9,35,0.00,,CLR,0.00,VWS V14.00,2013-04-08 00:57:00,
2013-04-07 21:02:00,63.1,35.0,30.03,SSW,200,5.4,7.5,35,0.00,,CLR,0.00,VWS V14.00,2013-04-08 01:02:00,
2013-04-07 21:07:00,62.9,34.9,30.03,South,183,3.4,3.8,35,0.00,,CLR,0.00,VWS V14.00,2013-04-08 01:07:00,
2013-04-07 21:12:00,62.9,34.9,30.03,SSE,160,3.9,9.1,35,0.00,,CLR,0.00,VWS V14.00,2013-04-08 01:12:00,
2013-04-07 21:17:00,62.5,34.5,30.03,South,179,6.9,7.5,35,0.00,,CLR,0.00,VWS V14.00,2013-04-08 01:17:00,
2013-04-07 21:22:00,62.5,34.5,30.03,SSW,203,3.9,5.9,35,0.00,,CLR,0.00,VWS V14.00,2013-04-08 01:22:00,
2013-04-07 21:27:00,62.2,34.2,30.03,NW,312,4.4,4.8,35,0.00,,CLR,0.00,VWS V14.00,2013-04-08 01:27:00,
2013-04-07 21:32:00,60.5,33.5,30.03,NW,318,3.0,3.8,36,0.00,,CLR,0.00,VWS V14.00,2013-04-08 01:32:00,
2013-04-07 21:37:00,60.5,34.1,30.03,NW,318,0.0,0.0,37,0.00,,CLR,0.00,VWS V14.00,2013-04-08 01:37:00,
2013-04-07 21:42:00,60.3,34.0,30.03,NW,318,0.0,0.0,37,0.00,,CLR,0.00,VWS V14.00,2013-04-08 01:42:00,
2013-04-07 21:47:00,60.1,33.8,30.03,NW,318,0.0,0.0,37,0.00,,CLR,0.00,VWS V14.00,2013-04-08 01:47:00,
2013-04-07 21:53:00,60.1,33.8,30.03,SSE,152,0.0,0.0,37,0.00,,CLR,0.00,VWS V14.00,2013-04-08 01:53:00,
2013-04-07 21:58:00,60.0,33.6,30.03,West,280,3.0,3.2,37,0.00,,CLR,0.00,VWS V14.00,2013-04-08 01:58:00,
2013-04-07 22:03:00,59.2,33.6,30.03,NNW,336,3.0,3.8,38,0.00,,FEW100,0.00,VWS V14.00,2013-04-08 02:03:00,
2013-04-07 22:08:00,58.8,33.3,30.03,NNW,345,0.0,2.7,38,0.00,,FEW100,0.00,VWS V14.00,2013-04-08 02:08:00,
2013-04-07 22:13:00,58.7,33.1,30.03,NNW,345,2.5,3.2,38,0.00,,FEW100,0.00,VWS V14.00,2013-04-08 02:13:00,
2013-04-07 22:18:00,58.7,33.1,30.06,NNW,345,0.0,0.0,38,0.00,,FEW100,0.00,VWS V14.00,2013-04-08 02:18:00,
2013-04-07 22:23:00,58.7,33.8,30.06,NNW,345,0.0,0.0,39,0.00,,FEW100,0.00,VWS V14.00,2013-04-08 02:23:00,
2013-04-07 22:28:00,58.7,33.1,30.06,NNW,345,2.5,3.2,38,0.00,,FEW100,0.00,VWS V14.00,2013-04-08 02:28:00,
2013-04-07 22:33:00,58.8,33.3,30.06,SE,137,3.0,3.2,38,0.00,,FEW100,0.00,VWS V14.00,2013-04-08 02:33:00,
2013-04-07 22:38:00,58.8,33.3,30.06,SE,140,0.0,3.8,38,0.00,,FEW100,0.00,VWS V14.00,2013-04-08 02:38:00,
2013-04-07 22:43:00,58.7,33.1,30.06,SSW,194,2.5,3.2,38,0.00,,FEW100,0.00,VWS V14.00,2013-04-08 02:43:00,
2013-04-07 22:49:00,58.7,33.1,30.06,SSW,192,0.0,2.7,38,0.00,,FEW100,0.00,VWS V14.00,2013-04-08 02:49:00,
2013-04-07 22:54:00,56.8,32.8,30.06,NW,325,0.0,3.2,40,0.00,,FEW100,0.00,VWS V14.00,2013-04-08 02:54:00,
2013-04-07 22:59:00,56.8,32.8,30.06,NW,325,0.0,0.0,40,0.00,,FEW100,0.00,VWS V14.00,2013-04-08 02:59:00,
2013-04-07 23:04:00,55.0,33.5,30.06,NW,325,2.5,3.2,44,0.00,,CLR,0.00,VWS V14.00,2013-04-08 03:04:00,
2013-04-07 23:09:00,54.6,34.2,30.06,NW,325,0.0,0.0,46,0.00,,CLR,0.00,VWS V14.00,2013-04-08 03:09:00,
2013-04-07 23:14:00,54.4,34.1,30.06,NW,325,0.0,0.0,46,0.00,,CLR,0.00,VWS V14.00,2013-04-08 03:14:00,
2013-04-07 23:20:00,54.6,34.2,30.06,NW,325,0.0,0.0,46,0.00,,CLR,0.00,VWS V14.00,2013-04-08 03:20:00,
2013-04-07 23:25:00,54.8,34.4,30.06,NW,325,0.0,0.0,46,0.00,,CLR,0.00,VWS V14.00,2013-04-08 03:25:00,
2013-04-07 23:30:00,54.8,34.4,30.06,NW,325,0.0,0.0,46,0.00,,CLR,0.00,VWS V14.00,2013-04-08 03:30:00,
2013-04-07 23:35:00,54.8,34.4,30.06,NW,325,0.0,0.0,46,0.00,,CLR,0.00,VWS V14.00,2013-04-08 03:35:00,
2013-04-07 23:40:00,54.4,34.1,30.06,NW,325,0.0,0.0,46,0.00,,CLR,0.00,VWS V14.00,2013-04-08 03:40:00,
2013-04-07 23:45:00,53.3,34.1,30.06,North,357,3.4,3.8,48,0.00,,CLR,0.00,VWS V14.00,2013-04-08 03:45:00,
2013-04-07 23:50:00,52.9,34.3,30.06,North,357,3.0,3.2,49,0.00,,CLR,0.00,VWS V14.00,2013-04-08 03:50:00,
2013-04-07 23:55:00,52.9,34.3,30.06,North,4,0.0,0.0,49,0.00,,CLR,0.00,VWS V14.00,2013-04-08 03:55:00,